createdAt,value
2018-12-02T05:02:29.928Z,2.97
2018-12-02T05:04:52.610Z,6.20
2018-12-02T05:07:15.268Z,7.17
2018-12-02T05:09:37.951Z,9.57
2018-12-02T05:12:00.658Z,8.60
2018-12-02T05:14:23.302Z,12.77
2018-12-02T06:02:44.032Z,4.00
2018-12-02T06:05:07.968Z,2.23
2018-12-02T06:07:30.612Z,2.90
2018-12-02T06:09:53.275Z,2.80
2018-12-02T06:12:15.950Z,2.87
2018-12-02T06:14:38.600Z,2.10
2018-12-02T07:00:23.606Z,4.73
2018-12-02T07:02:53.804Z,2.63
2018-12-02T07:05:23.703Z,3.30
2018-12-02T07:07:46.326Z,3.00
2018-12-02T07:10:09.006Z,4.47
2018-12-02T07:12:31.677Z,3.50
2018-12-02T07:14:54.379Z,3.93
2018-12-02T08:00:25.940Z,10.10
2018-12-02T08:02:48.646Z,12.90
2018-12-02T08:05:13.781Z,8.67
2018-12-02T08:07:36.437Z,9.87
2018-12-02T08:09:59.118Z,10.40
2018-12-02T08:12:21.919Z,3.30
2018-12-02T08:14:44.589Z,4.13
2018-12-02T09:00:17.245Z,3.00
2018-12-02T09:02:39.966Z,3.63
2018-12-02T09:05:02.695Z,2.20
2018-12-02T09:07:25.421Z,3.17
2018-12-02T09:09:48.151Z,3.60
2018-12-02T09:12:10.826Z,2.13
2018-12-02T09:14:33.537Z,3.07
2018-12-02T10:00:21.050Z,1.80
2018-12-02T10:02:43.918Z,2.23
2018-12-02T10:05:06.722Z,1.47
2018-12-02T10:07:29.417Z,2.40
2018-12-02T10:09:52.071Z,2.07
2018-12-02T10:12:14.722Z,1.47
2018-12-02T10:14:37.406Z,1.30
2018-12-02T11:00:24.687Z,2.83
2018-12-02T11:02:54.975Z,2.57
2018-12-02T11:05:17.757Z,1.63
2018-12-02T11:07:40.490Z,0.97
2018-12-02T11:10:03.671Z,1.47
2018-12-02T11:12:26.363Z,0.70
2018-12-02T11:14:49.066Z,1.00
2018-12-02T12:00:23.305Z,1.03
2018-12-02T12:02:46.067Z,1.43
2018-12-02T12:05:09.637Z,0.70
2018-12-02T12:07:32.654Z,1.80
2018-12-02T12:09:55.317Z,1.57
2018-12-02T12:12:18.093Z,2.10
2018-12-02T12:14:40.883Z,1.17
2018-12-02T13:00:21.285Z,0.80
2018-12-02T13:02:44.043Z,0.90
2018-12-02T13:05:08.806Z,0.83
2018-12-02T13:07:31.550Z,0.77
2018-12-02T13:09:54.270Z,0.50
2018-12-02T13:12:16.985Z,0.40
2018-12-02T13:14:39.720Z,0.50
2018-12-02T13:38:38.018Z,0.63
2018-12-02T13:41:00.735Z,0.73
2018-12-02T13:43:24.349Z,0.93
2018-12-02T13:45:47.638Z,1.30
2018-12-02T13:48:10.373Z,0.97
2018-12-02T13:50:33.172Z,1.70
2018-12-02T13:52:56.546Z,0.63
2018-12-02T13:55:20.875Z,2.20
2018-12-02T13:57:43.792Z,1.73
2018-12-02T14:00:40.820Z,1.50
2018-12-02T14:03:06.106Z,0.70
2018-12-02T14:05:28.921Z,0.40
2018-12-02T14:07:51.698Z,0.57
2018-12-02T14:10:14.907Z,0.57
2018-12-02T14:12:37.968Z,1.50
2018-12-02T14:15:01.305Z,0.30
2018-12-02T15:00:30.423Z,0.53
2018-12-02T15:02:53.130Z,0.90
2018-12-02T15:05:15.814Z,1.60
2018-12-02T15:07:38.486Z,0.13
2018-12-02T15:10:01.130Z,0.60
2018-12-02T15:12:23.774Z,0.50
2018-12-02T15:14:46.438Z,0.50
2018-12-02T16:00:24.570Z,2.20
2018-12-02T16:03:10.626Z,2.40
2018-12-02T16:05:33.386Z,3.13
2018-12-02T16:07:56.079Z,3.27
2018-12-02T16:10:18.770Z,2.77
2018-12-02T16:12:42.772Z,2.37
2018-12-02T17:01:22.035Z,1.03
2018-12-02T17:03:44.887Z,1.67
2018-12-02T17:06:07.861Z,1.10
2018-12-02T17:08:31.650Z,1.33
2018-12-02T17:10:54.343Z,1.37
2018-12-02T17:14:20.973Z,1.20
2018-12-02T18:00:17.487Z,1.40
2018-12-02T18:02:40.296Z,2.60
2018-12-02T18:05:03.237Z,2.63
2018-12-02T18:07:25.966Z,1.57
2018-12-02T18:09:49.672Z,2.33
2018-12-02T18:12:12.381Z,1.43
2018-12-02T18:14:35.367Z,1.23
2018-12-02T19:00:24.909Z,1.23
2018-12-02T19:03:06.196Z,1.00
2018-12-02T19:05:29.086Z,0.90
2018-12-02T19:07:51.899Z,1.00
2018-12-02T19:10:17.310Z,1.63
2018-12-02T19:12:40.043Z,3.73
2018-12-02T19:15:02.775Z,1.80
2018-12-02T20:00:43.872Z,11.40
2018-12-02T20:03:09.054Z,12.33
2018-12-02T20:05:33.324Z,11.27
2018-12-02T20:07:59.530Z,13.27
2018-12-02T20:10:27.062Z,13.73
2018-12-02T20:12:49.870Z,16.40
2018-12-02T21:01:29.654Z,2.83
2018-12-02T21:03:52.526Z,0.73
2018-12-02T21:06:17.122Z,2.07
2018-12-02T21:08:39.938Z,2.17
2018-12-02T21:11:02.774Z,2.37
2018-12-02T21:13:25.548Z,1.77
